sensor_id;sensor_type;location;lat;lon;timestamp;pressure;altitude;pressure_sealevel;temperature;humidity
75740;BME280;64357;51.344;6.550;2022-11-27T00:01:22;102329.16;;;5.24;86.61
75740;BME280;64357;51.344;6.550;2022-11-27T00:03:48;102322.97;;;5.22;86.33
75740;BME280;64357;51.344;6.550;2022-11-27T00:06:18;102323.38;;;5.25;86.20
75740;BME280;64357;51.344;6.550;2022-11-27T00:08:45;102322.47;;;5.25;86.07
75740;BME280;64357;51.344;6.550;2022-11-27T00:11:13;102325.47;;;5.28;85.34
75740;BME280;64357;51.344;6.550;2022-11-27T00:13:41;102320.16;;;5.26;85.65
75740;BME280;64357;51.344;6.550;2022-11-27T00:16:09;102310.03;;;5.26;85.64
75740;BME280;64357;51.344;6.550;2022-11-27T00:18:35;102310.97;;;5.21;85.73
75740;BME280;64357;51.344;6.550;2022-11-27T00:21:05;102311.44;;;5.24;85.38
75740;BME280;64357;51.344;6.550;2022-11-27T00:23:32;102321.31;;;5.28;85.41
75740;BME280;64357;51.344;6.550;2022-11-27T00:25:58;102320.41;;;5.28;85.66
75740;BME280;64357;51.344;6.550;2022-11-27T00:28:27;102295.81;;;5.16;85.73
75740;BME280;64357;51.344;6.550;2022-11-27T00:31:02;102308.22;;;5.20;85.38
75740;BME280;64357;51.344;6.550;2022-11-27T00:33:28;102300.88;;;5.16;86.05
75740;BME280;64357;51.344;6.550;2022-11-27T00:35:54;102300.41;;;5.18;85.83
75740;BME280;64357;51.344;6.550;2022-11-27T00:38:22;102285.47;;;5.14;85.81
75740;BME280;64357;51.344;6.550;2022-11-27T00:40:49;102296.06;;;5.17;85.81
75740;BME280;64357;51.344;6.550;2022-11-27T00:43:15;102288.88;;;5.20;86.14
75740;BME280;64357;51.344;6.550;2022-11-27T00:45:40;102283.09;;;5.21;85.21
75740;BME280;64357;51.344;6.550;2022-11-27T00:48:08;102283.16;;;5.16;85.27
75740;BME280;64357;51.344;6.550;2022-11-27T00:50:33;102283.38;;;5.17;85.97
75740;BME280;64357;51.344;6.550;2022-11-27T00:52:58;102288.88;;;5.20;85.91
75740;BME280;64357;51.344;6.550;2022-11-27T00:55:24;102283.59;;;5.19;85.57
75740;BME280;64357;51.344;6.550;2022-11-27T00:57:52;102290.94;;;5.23;84.87
75740;BME280;64357;51.344;6.550;2022-11-27T01:00:18;102274.16;;;5.18;85.29
75740;BME280;64357;51.344;6.550;2022-11-27T01:02:43;102281.28;;;5.20;85.93
75740;BME280;64357;51.344;6.550;2022-11-27T01:05:11;102274.38;;;5.19;85.31
75740;BME280;64357;51.344;6.550;2022-11-27T01:07:36;102279.66;;;5.21;85.05
75740;BME280;64357;51.344;6.550;2022-11-27T01:10:02;102281.06;;;5.19;85.53
75740;BME280;64357;51.344;6.550;2022-11-27T01:12:27;102275.78;;;5.17;85.51
75740;BME280;64357;51.344;6.550;2022-11-27T01:14:55;102275.50;;;5.21;85.36
75740;BME280;64357;51.344;6.550;2022-11-27T01:17:20;102274.59;;;5.21;85.56
75740;BME280;64357;51.344;6.550;2022-11-27T01:19:46;102278.03;;;5.21;85.30
75740;BME280;64357;51.344;6.550;2022-11-27T01:22:11;102273.47;;;5.19;85.41
75740;BME280;64357;51.344;6.550;2022-11-27T01:24:36;102278.53;;;5.19;85.67
75740;BME280;64357;51.344;6.550;2022-11-27T01:27:05;102280.81;;;5.23;84.88
75740;BME280;64357;51.344;6.550;2022-11-27T01:29:30;102280.81;;;5.23;85.11
75740;BME280;64357;51.344;6.550;2022-11-27T01:31:55;102272.56;;;5.18;85.49
75740;BME280;64357;51.344;6.550;2022-11-27T01:34:21;102281.72;;;5.23;85.18
75740;BME280;64357;51.344;6.550;2022-11-27T01:36:46;102275.25;;;5.25;84.43
75740;BME280;64357;51.344;6.550;2022-11-27T01:39:19;102269.47;;;5.26;84.46
75740;BME280;64357;51.344;6.550;2022-11-27T01:41:46;102260.75;;;5.24;85.19
75740;BME280;64357;51.344;6.550;2022-11-27T01:46:57;102256.81;;;5.26;84.60
75740;BME280;64357;51.344;6.550;2022-11-27T01:52:21;102248.09;;;5.24;84.39
75740;BME280;64357;51.344;6.550;2022-11-27T01:54:56;102257.09;;;5.22;84.22
75740;BME280;64357;51.344;6.550;2022-11-27T01:57:30;102255.69;;;5.24;84.20
75740;BME280;64357;51.344;6.550;2022-11-27T02:00:02;102258.72;;;5.22;84.97
75740;BME280;64357;51.344;6.550;2022-11-27T02:02:28;102263.09;;;5.23;84.50
75740;BME280;64357;51.344;6.550;2022-11-27T02:04:54;102262.38;;;5.24;84.08
75740;BME280;64357;51.344;6.550;2022-11-27T02:07:20;102250.66;;;5.19;84.89
75740;BME280;64357;51.344;6.550;2022-11-27T02:09:45;102247.00;;;5.17;84.45
75740;BME280;64357;51.344;6.550;2022-11-27T02:15:15;102249.31;;;5.15;84.70
75740;BME280;64357;51.344;6.550;2022-11-27T02:17:53;102250.22;;;5.16;84.46
75740;BME280;64357;51.344;6.550;2022-11-27T02:23:40;102247.94;;;5.17;84.32
75740;BME280;64357;51.344;6.550;2022-11-27T02:26:39;102242.91;;;5.12;84.85
75740;BME280;64357;51.344;6.550;2022-11-27T02:29:12;102239.91;;;5.08;84.46
75740;BME280;64357;51.344;6.550;2022-11-27T02:32:04;102232.78;;;5.12;84.53
75740;BME280;64357;51.344;6.550;2022-11-27T02:37:23;102211.59;;;5.11;83.87
75740;BME280;64357;51.344;6.550;2022-11-27T02:40:11;102189.06;;;5.07;83.87
75740;BME280;64357;51.344;6.550;2022-11-27T02:42:46;102182.16;;;5.06;83.80
75740;BME280;64357;51.344;6.550;2022-11-27T02:45:16;102177.09;;;5.06;83.85
75740;BME280;64357;51.344;6.550;2022-11-27T02:47:48;102175.72;;;5.02;83.91
75740;BME280;64357;51.344;6.550;2022-11-27T02:50:18;102176.63;;;5.03;83.43
75740;BME280;64357;51.344;6.550;2022-11-27T02:52:48;102180.34;;;5.05;83.42
75740;BME280;64357;51.344;6.550;2022-11-27T02:55:17;102184.72;;;5.00;83.99
75740;BME280;64357;51.344;6.550;2022-11-27T02:57:47;102173.72;;;4.94;83.44
75740;BME280;64357;51.344;6.550;2022-11-27T03:00:15;102171.41;;;4.96;83.26
75740;BME280;64357;51.344;6.550;2022-11-27T03:02:48;102174.41;;;4.99;83.38
75740;BME280;64357;51.344;6.550;2022-11-27T03:05:19;102167.25;;;4.96;84.03
75740;BME280;64357;51.344;6.550;2022-11-27T03:08:03;102159.91;;;4.92;83.47
75740;BME280;64357;51.344;6.550;2022-11-27T03:10:34;102154.44;;;4.89;83.51
75740;BME280;64357;51.344;6.550;2022-11-27T03:13:02;102148.22;;;4.93;83.48
75740;BME280;64357;51.344;6.550;2022-11-27T03:16:19;102150.50;;;4.91;83.89
75740;BME280;64357;51.344;6.550;2022-11-27T03:18:31;102152.13;;;4.91;84.28
75740;BME280;64357;51.344;6.550;2022-11-27T03:21:08;102146.84;;;4.89;83.93
75740;BME280;64357;51.344;6.550;2022-11-27T03:23:35;102153.94;;;4.92;83.62
75740;BME280;64357;51.344;6.550;2022-11-27T03:26:00;102141.56;;;4.88;83.93
75740;BME280;64357;51.344;6.550;2022-11-27T03:28:27;102146.34;;;4.92;83.23
75740;BME280;64357;51.344;6.550;2022-11-27T03:30:53;102146.34;;;4.92;84.23
75740;BME280;64357;51.344;6.550;2022-11-27T03:33:19;102151.41;;;4.92;84.12
75740;BME280;64357;51.344;6.550;2022-11-27T03:35:44;102154.84;;;4.92;83.77
75740;BME280;64357;51.344;6.550;2022-11-27T03:38:09;102150.03;;;4.94;83.31
75740;BME280;64357;51.344;6.550;2022-11-27T03:40:47;102138.75;;;4.92;83.62
75740;BME280;64357;51.344;6.550;2022-11-27T03:43:22;102133.22;;;4.94;83.84
75740;BME280;64357;51.344;6.550;2022-11-27T03:45:58;102133.44;;;4.96;83.34
75740;BME280;64357;51.344;6.550;2022-11-27T03:51:18;102139.63;;;4.98;82.89
75740;BME280;64357;51.344;6.550;2022-11-27T03:54:00;102134.34;;;4.96;83.15
75740;BME280;64357;51.344;6.550;2022-11-27T03:56:46;102129.72;;;4.99;82.38
75740;BME280;64357;51.344;6.550;2022-11-27T03:59:19;102126.03;;;4.97;83.67
75740;BME280;64357;51.344;6.550;2022-11-27T04:01:48;102115.25;;;4.98;83.72
75740;BME280;64357;51.344;6.550;2022-11-27T04:04:13;102092.00;;;4.95;83.09
75740;BME280;64357;51.344;6.550;2022-11-27T04:06:41;102099.59;;;4.95;83.34
75740;BME280;64357;51.344;6.550;2022-11-27T04:09:07;102106.28;;;4.95;83.31
75740;BME280;64357;51.344;6.550;2022-11-27T04:11:32;102104.16;;;4.98;83.35
75740;BME280;64357;51.344;6.550;2022-11-27T04:13:57;102097.53;;;4.98;83.45
75740;BME280;64357;51.344;6.550;2022-11-27T04:16:23;102106.50;;;4.96;82.66
75740;BME280;64357;51.344;6.550;2022-11-27T04:18:48;102089.47;;;4.95;82.39
75740;BME280;64357;51.344;6.550;2022-11-27T04:21:14;102094.31;;;4.94;82.48
75740;BME280;64357;51.344;6.550;2022-11-27T04:23:41;102092.72;;;4.94;82.54
75740;BME280;64357;51.344;6.550;2022-11-27T04:26:06;102085.13;;;4.94;83.49
75740;BME280;64357;51.344;6.550;2022-11-27T04:28:34;102096.56;;;4.98;83.35
75740;BME280;64357;51.344;6.550;2022-11-27T04:31:01;102095.94;;;4.93;82.79
75740;BME280;64357;51.344;6.550;2022-11-27T04:33:27;102082.31;;;4.98;83.31
75740;BME280;64357;51.344;6.550;2022-11-27T04:35:52;102074.03;;;4.99;82.78
75740;BME280;64357;51.344;6.550;2022-11-27T04:38:19;102077.47;;;5.00;82.73
75740;BME280;64357;51.344;6.550;2022-11-27T04:40:51;102072.19;;;4.98;82.59
75740;BME280;64357;51.344;6.550;2022-11-27T04:43:17;102067.03;;;5.04;82.87
75740;BME280;64357;51.344;6.550;2022-11-27T04:45:43;102061.56;;;5.01;82.66
75740;BME280;64357;51.344;6.550;2022-11-27T04:48:08;102073.06;;;5.04;82.04
75740;BME280;64357;51.344;6.550;2022-11-27T04:50:34;102068.72;;;4.98;82.48
75740;BME280;64357;51.344;6.550;2022-11-27T04:52:59;102075.41;;;4.97;82.59
75740;BME280;64357;51.344;6.550;2022-11-27T04:55:25;102083.84;;;5.03;82.78
75740;BME280;64357;51.344;6.550;2022-11-27T04:57:50;102072.81;;;5.03;81.84
75740;BME280;64357;51.344;6.550;2022-11-27T05:00:16;102074.63;;;5.04;82.35
75740;BME280;64357;51.344;6.550;2022-11-27T05:02:42;102061.13;;;4.98;82.75
75740;BME280;64357;51.344;6.550;2022-11-27T05:05:07;102060.66;;;5.00;82.23
75740;BME280;64357;51.344;6.550;2022-11-27T05:07:33;102056.00;;;5.03;82.14
75740;BME280;64357;51.344;6.550;2022-11-27T05:09:59;102056.50;;;5.01;82.58
75740;BME280;64357;51.344;6.550;2022-11-27T05:12:26;102051.19;;;5.05;81.74
75740;BME280;64357;51.344;6.550;2022-11-27T05:14:54;102051.66;;;5.02;82.51
75740;BME280;64357;51.344;6.550;2022-11-27T05:17:19;102056.25;;;5.05;82.02
75740;BME280;64357;51.344;6.550;2022-11-27T05:19:44;102055.09;;;5.03;82.05
75740;BME280;64357;51.344;6.550;2022-11-27T05:22:10;102052.56;;;5.03;82.28
75740;BME280;64357;51.344;6.550;2022-11-27T05:24:37;102053.91;;;5.06;82.15
75740;BME280;64357;51.344;6.550;2022-11-27T05:27:05;102056.25;;;5.05;81.63
75740;BME280;64357;51.344;6.550;2022-11-27T05:29:30;102041.72;;;5.04;81.43
75740;BME280;64357;51.344;6.550;2022-11-27T05:31:56;102052.56;;;5.03;81.59
75740;BME280;64357;51.344;6.550;2022-11-27T05:34:21;102044.97;;;5.03;81.65
75740;BME280;64357;51.344;6.550;2022-11-27T05:36:47;102042.44;;;5.03;81.19
75740;BME280;64357;51.344;6.550;2022-11-27T05:39:12;102035.75;;;5.03;81.80
75740;BME280;64357;51.344;6.550;2022-11-27T05:41:39;102035.06;;;5.04;81.18
75740;BME280;64357;51.344;6.550;2022-11-27T05:44:05;102029.06;;;5.04;81.68
75740;BME280;64357;51.344;6.550;2022-11-27T05:46:31;102024.00;;;5.04;82.10
75740;BME280;64357;51.344;6.550;2022-11-27T05:48:56;102018.94;;;5.04;80.96
75740;BME280;64357;51.344;6.550;2022-11-27T05:51:22;102022.41;;;5.04;81.09
75740;BME280;64357;51.344;6.550;2022-11-27T05:53:50;102017.41;;;4.99;81.87
75740;BME280;64357;51.344;6.550;2022-11-27T05:56:17;102018.00;;;5.03;82.13
75740;BME280;64357;51.344;6.550;2022-11-27T05:58:44;102005.16;;;5.02;81.55
75740;BME280;64357;51.344;6.550;2022-11-27T06:01:13;102006.97;;;5.03;82.00
75740;BME280;64357;51.344;6.550;2022-11-27T06:03:39;102011.34;;;5.04;81.55
75740;BME280;64357;51.344;6.550;2022-11-27T06:06:12;102010.00;;;5.00;81.35
75740;BME280;64357;51.344;6.550;2022-11-27T06:08:38;102006.25;;;5.04;81.09
75740;BME280;64357;51.344;6.550;2022-11-27T06:11:17;102008.31;;;5.06;81.23
75740;BME280;64357;51.344;6.550;2022-11-27T06:13:45;102001.00;;;5.02;81.50
75740;BME280;64357;51.344;6.550;2022-11-27T06:16:16;102008.13;;;5.05;81.46
75740;BME280;64357;51.344;6.550;2022-11-27T06:18:42;102010.88;;;5.06;80.93
75740;BME280;64357;51.344;6.550;2022-11-27T06:21:10;102005.78;;;5.06;80.86
75740;BME280;64357;51.344;6.550;2022-11-27T06:23:35;102010.16;;;5.07;81.35
75740;BME280;64357;51.344;6.550;2022-11-27T06:26:12;102010.88;;;5.06;81.74
75740;BME280;64357;51.344;6.550;2022-11-27T06:28:38;102000.72;;;5.06;81.06
75740;BME280;64357;51.344;6.550;2022-11-27T06:31:10;101990.66;;;5.01;81.49
75740;BME280;64357;51.344;6.550;2022-11-27T06:33:36;101993.84;;;5.05;81.42
75740;BME280;64357;51.344;6.550;2022-11-27T06:36:04;101965.53;;;5.02;81.05
75740;BME280;64357;51.344;6.550;2022-11-27T06:38:31;101940.44;;;5.04;81.71
75740;BME280;64357;51.344;6.550;2022-11-27T06:41:05;101942.75;;;5.02;81.41
75740;BME280;64357;51.344;6.550;2022-11-27T06:43:32;101951.50;;;5.04;81.13
75740;BME280;64357;51.344;6.550;2022-11-27T06:45:59;101953.31;;;5.05;81.09
75740;BME280;64357;51.344;6.550;2022-11-27T06:48:24;101947.13;;;5.03;81.52
75740;BME280;64357;51.344;6.550;2022-11-27T06:50:50;101953.53;;;5.07;81.56
75740;BME280;64357;51.344;6.550;2022-11-27T06:53:17;101945.22;;;5.08;81.42
75740;BME280;64357;51.344;6.550;2022-11-27T06:55:42;101951.00;;;5.07;81.11
75740;BME280;64357;51.344;6.550;2022-11-27T06:58:08;101952.81;;;5.08;81.47
75740;BME280;64357;51.344;6.550;2022-11-27T07:00:33;101943.59;;;5.08;81.18
75740;BME280;64357;51.344;6.550;2022-11-27T07:02:58;101941.72;;;5.13;80.93
75740;BME280;64357;51.344;6.550;2022-11-27T07:05:26;101943.97;;;5.17;80.89
75740;BME280;64357;51.344;6.550;2022-11-27T07:07:56;101945.59;;;5.17;80.73
75740;BME280;64357;51.344;6.550;2022-11-27T07:10:22;101935.66;;;5.18;81.23
75740;BME280;64357;51.344;6.550;2022-11-27T07:12:47;101938.59;;;5.21;81.00
75740;BME280;64357;51.344;6.550;2022-11-27T07:15:15;101940.47;;;5.22;80.46
75740;BME280;64357;51.344;6.550;2022-11-27T07:17:40;101934.88;;;5.25;80.43
75740;BME280;64357;51.344;6.550;2022-11-27T07:20:06;101933.25;;;5.25;80.78
75740;BME280;64357;51.344;6.550;2022-11-27T07:22:32;101931.94;;;5.22;81.24
75740;BME280;64357;51.344;6.550;2022-11-27T07:24:59;101940.38;;;5.28;80.37
75740;BME280;64357;51.344;6.550;2022-11-27T07:27:25;101939.69;;;5.29;80.91
75740;BME280;64357;51.344;6.550;2022-11-27T07:29:51;101934.09;;;5.31;80.30
75740;BME280;64357;51.344;6.550;2022-11-27T07:32:16;101925.09;;;5.33;80.21
75740;BME280;64357;51.344;6.550;2022-11-27T07:34:44;101933.63;;;5.34;81.25
75740;BME280;64357;51.344;6.550;2022-11-27T07:37:09;101928.06;;;5.37;80.42
75740;BME280;64357;51.344;6.550;2022-11-27T07:39:36;101922.28;;;5.38;80.36
75740;BME280;64357;51.344;6.550;2022-11-27T07:42:02;101919.75;;;5.38;80.78
75740;BME280;64357;51.344;6.550;2022-11-27T07:44:27;101920.38;;;5.42;80.24
75740;BME280;64357;51.344;6.550;2022-11-27T07:46:53;101918.47;;;5.47;79.88
75740;BME280;64357;51.344;6.550;2022-11-27T07:49:18;101920.69;;;5.51;79.89
75740;BME280;64357;51.344;6.550;2022-11-27T07:51:43;101923.66;;;5.54;79.97
75740;BME280;64357;51.344;6.550;2022-11-27T07:54:09;101913.94;;;5.57;79.96
75740;BME280;64357;51.344;6.550;2022-11-27T07:56:34;101916.69;;;5.58;79.56
75740;BME280;64357;51.344;6.550;2022-11-27T07:58:59;101924.69;;;5.61;80.38
75740;BME280;64357;51.344;6.550;2022-11-27T08:01:25;101918.44;;;5.65;79.28
75740;BME280;64357;51.344;6.550;2022-11-27T08:03:52;101929.22;;;5.70;79.35
75740;BME280;64357;51.344;6.550;2022-11-27T08:06:20;101918.34;;;5.71;80.02
75740;BME280;64357;51.344;6.550;2022-11-27T08:08:46;101916.84;;;5.78;78.82
75740;BME280;64357;51.344;6.550;2022-11-27T08:11:25;101918.38;;;5.83;78.81
75740;BME280;64357;51.344;6.550;2022-11-27T08:13:55;101913.03;;;5.87;78.85
75740;BME280;64357;51.344;6.550;2022-11-27T08:16:21;101907.44;;;5.90;78.04
75740;BME280;64357;51.344;6.550;2022-11-27T08:18:49;101906.53;;;5.89;78.38
75740;BME280;64357;51.344;6.550;2022-11-27T08:21:14;101919.69;;;5.93;78.21
75740;BME280;64357;51.344;6.550;2022-11-27T08:23:40;101916.09;;;5.98;78.60
75740;BME280;64357;51.344;6.550;2022-11-27T08:26:07;101907.31;;;6.01;78.52
75740;BME280;64357;51.344;6.550;2022-11-27T08:28:33;101922.94;;;6.04;78.52
75740;BME280;64357;51.344;6.550;2022-11-27T08:31:05;101907.31;;;6.01;78.21
75740;BME280;64357;51.344;6.550;2022-11-27T08:33:31;101902.44;;;6.03;78.49
75740;BME280;64357;51.344;6.550;2022-11-27T08:35:56;101897.34;;;6.03;77.97
75740;BME280;64357;51.344;6.550;2022-11-27T08:38:24;101898.16;;;6.09;77.83
75740;BME280;64357;51.344;6.550;2022-11-27T08:41:01;101897.50;;;6.10;78.49
75740;BME280;64357;51.344;6.550;2022-11-27T08:43:32;101897.88;;;6.13;78.17
75740;BME280;64357;51.344;6.550;2022-11-27T08:45:58;101887.03;;;6.14;77.69
75740;BME280;64357;51.344;6.550;2022-11-27T08:48:24;101880.94;;;6.19;78.27
75740;BME280;64357;51.344;6.550;2022-11-27T08:50:52;101886.81;;;6.25;78.76
75740;BME280;64357;51.344;6.550;2022-11-27T08:53:17;101883.56;;;6.26;77.86
75740;BME280;64357;51.344;6.550;2022-11-27T08:55:44;101883.69;;;6.33;77.81
75740;BME280;64357;51.344;6.550;2022-11-27T08:58:09;101878.81;;;6.35;77.66
75740;BME280;64357;51.344;6.550;2022-11-27T09:00:37;101880.53;;;6.41;77.68
75740;BME280;64357;51.344;6.550;2022-11-27T09:03:03;101872.41;;;6.44;77.61
75740;BME280;64357;51.344;6.550;2022-11-27T09:05:29;101867.94;;;6.49;76.52
75740;BME280;64357;51.344;6.550;2022-11-27T09:07:55;101863.97;;;6.51;77.01
75740;BME280;64357;51.344;6.550;2022-11-27T09:10:21;101859.31;;;6.54;76.45
75740;BME280;64357;51.344;6.550;2022-11-27T09:12:51;101858.47;;;6.60;75.90
75740;BME280;64357;51.344;6.550;2022-11-27T09:15:17;101866.00;;;6.66;76.06
75740;BME280;64357;51.344;6.550;2022-11-27T09:17:42;101865.50;;;6.68;76.46
75740;BME280;64357;51.344;6.550;2022-11-27T09:20:11;101865.69;;;6.70;76.36
75740;BME280;64357;51.344;6.550;2022-11-27T09:22:38;101869.53;;;6.74;75.92
75740;BME280;64357;51.344;6.550;2022-11-27T09:25:04;101862.50;;;6.78;75.78
75740;BME280;64357;51.344;6.550;2022-11-27T09:27:29;101860.38;;;6.81;75.47
75740;BME280;64357;51.344;6.550;2022-11-27T09:29:57;101854.88;;;6.78;75.52
75740;BME280;64357;51.344;6.550;2022-11-27T09:32:22;101853.69;;;6.82;75.77
75740;BME280;64357;51.344;6.550;2022-11-27T09:34:53;101841.69;;;6.81;75.41
75740;BME280;64357;51.344;6.550;2022-11-27T09:37:18;101852.44;;;6.85;75.62
75740;BME280;64357;51.344;6.550;2022-11-27T09:39:44;101850.13;;;6.87;75.75
75740;BME280;64357;51.344;6.550;2022-11-27T09:42:16;101853.88;;;6.83;75.67
75740;BME280;64357;51.344;6.550;2022-11-27T09:44:54;101844.81;;;6.85;75.27
75740;BME280;64357;51.344;6.550;2022-11-27T09:47:40;101838.31;;;6.87;75.49
75740;BME280;64357;51.344;6.550;2022-11-27T09:50:11;101846.84;;;6.88;75.59
75740;BME280;64357;51.344;6.550;2022-11-27T09:52:38;101841.97;;;6.89;76.18
75740;BME280;64357;51.344;6.550;2022-11-27T09:57:54;101841.66;;;6.93;75.95
75740;BME280;64357;51.344;6.550;2022-11-27T10:00:27;101833.69;;;6.98;75.73
75740;BME280;64357;51.344;6.550;2022-11-27T10:02:53;101840.81;;;7.00;76.37
75740;BME280;64357;51.344;6.550;2022-11-27T10:05:22;101829.56;;;6.98;76.67
75740;BME280;64357;51.344;6.550;2022-11-27T10:18:48;101798.66;;;7.15;75.92
75740;BME280;64357;51.344;6.550;2022-11-27T10:21:34;101790.72;;;7.19;76.60
75740;BME280;64357;51.344;6.550;2022-11-27T10:24:05;101790.22;;;7.21;75.66
75740;BME280;64357;51.344;6.550;2022-11-27T10:26:40;101794.06;;;7.25;75.51
75740;BME280;64357;51.344;6.550;2022-11-27T10:31:53;101783.88;;;7.25;75.30
75740;BME280;64357;51.344;6.550;2022-11-27T10:34:25;101741.59;;;7.26;76.43
75740;BME280;64357;51.344;6.550;2022-11-27T10:36:55;101744.53;;;7.29;75.07
75740;BME280;64357;51.344;6.550;2022-11-27T10:39:31;101754.69;;;7.29;75.94
75740;BME280;64357;51.344;6.550;2022-11-27T10:42:09;101744.34;;;7.27;76.47
75740;BME280;64357;51.344;6.550;2022-11-27T10:44:41;101745.25;;;7.28;76.46
75740;BME280;64357;51.344;6.550;2022-11-27T10:47:11;101722.56;;;7.29;75.88
75740;BME280;64357;51.344;6.550;2022-11-27T10:49:41;101727.47;;;7.28;75.96
75740;BME280;64357;51.344;6.550;2022-11-27T10:52:12;101723.66;;;7.31;75.12
75740;BME280;64357;51.344;6.550;2022-11-27T10:54:38;101716.94;;;7.32;74.78
75740;BME280;64357;51.344;6.550;2022-11-27T10:57:43;101723.16;;;7.34;76.44
75740;BME280;64357;51.344;6.550;2022-11-27T11:00:22;101732.41;;;7.33;75.90
75740;BME280;64357;51.344;6.550;2022-11-27T11:02:57;101742.63;;;7.40;75.93
75740;BME280;64357;51.344;6.550;2022-11-27T11:05:25;101720.66;;;7.41;76.65
75740;BME280;64357;51.344;6.550;2022-11-27T11:08:01;101717.97;;;7.46;75.63
75740;BME280;64357;51.344;6.550;2022-11-27T11:10:41;101701.09;;;7.47;76.42
75740;BME280;64357;51.344;6.550;2022-11-27T11:19:03;101695.16;;;7.54;75.32
75740;BME280;64357;51.344;6.550;2022-11-27T11:21:04;101695.31;;;7.55;74.56
75740;BME280;64357;51.344;6.550;2022-11-27T11:23:34;101683.91;;;7.59;74.30
75740;BME280;64357;51.344;6.550;2022-11-27T11:26:12;101682.69;;;7.62;74.61
75740;BME280;64357;51.344;6.550;2022-11-27T11:29:00;101662.84;;;7.60;73.92
75740;BME280;64357;51.344;6.550;2022-11-27T11:31:32;101670.16;;;7.64;74.08
75740;BME280;64357;51.344;6.550;2022-11-27T11:34:02;101665.81;;;7.70;74.22
75740;BME280;64357;51.344;6.550;2022-11-27T11:36:31;101656.56;;;7.70;72.97
75740;BME280;64357;51.344;6.550;2022-11-27T11:38:56;101656.59;;;7.78;73.87
75740;BME280;64357;51.344;6.550;2022-11-27T11:41:22;101643.72;;;7.83;73.55
75740;BME280;64357;51.344;6.550;2022-11-27T11:43:54;101637.56;;;7.88;73.10
75740;BME280;64357;51.344;6.550;2022-11-27T11:46:26;101632.13;;;7.92;73.29
75740;BME280;64357;51.344;6.550;2022-11-27T11:54:41;101634.88;;;8.08;71.97
75740;BME280;64357;51.344;6.550;2022-11-27T12:02:35;101633.66;;;8.19;70.75
75740;BME280;64357;51.344;6.550;2022-11-27T12:13:28;101604.03;;;8.26;70.56
75740;BME280;64357;51.344;6.550;2022-11-27T12:18:55;101600.47;;;8.46;70.37
75740;BME280;64357;51.344;6.550;2022-11-27T12:37:46;101579.91;;;8.73;68.24
75740;BME280;64357;51.344;6.550;2022-11-27T12:45:32;101563.00;;;8.80;67.30
75740;BME280;64357;51.344;6.550;2022-11-27T12:48:06;101558.44;;;8.78;67.49
75740;BME280;64357;51.344;6.550;2022-11-27T12:50:43;101560.25;;;8.79;67.05
75740;BME280;64357;51.344;6.550;2022-11-27T12:53:44;101549.88;;;8.85;66.86
75740;BME280;64357;51.344;6.550;2022-11-27T12:56:21;101532.41;;;8.88;67.16
75740;BME280;64357;51.344;6.550;2022-11-27T12:59:05;101537.34;;;8.86;66.69
75740;BME280;64357;51.344;6.550;2022-11-27T13:01:38;101517.47;;;8.84;66.67
75740;BME280;64357;51.344;6.550;2022-11-27T13:04:41;101508.19;;;8.84;66.74
75740;BME280;64357;51.344;6.550;2022-11-27T13:07:16;101498.72;;;8.90;67.20
75740;BME280;64357;51.344;6.550;2022-11-27T13:12:28;101490.03;;;8.81;66.33
75740;BME280;64357;51.344;6.550;2022-11-27T13:15:04;101479.28;;;8.76;66.81
75740;BME280;64357;51.344;6.550;2022-11-27T13:17:40;101501.47;;;8.77;68.31
75740;BME280;64357;51.344;6.550;2022-11-27T13:20:19;101484.75;;;8.72;68.13
75740;BME280;64357;51.344;6.550;2022-11-27T13:22:46;101483.09;;;8.73;68.83
75740;BME280;64357;51.344;6.550;2022-11-27T13:25:18;101486.06;;;8.69;69.54
75740;BME280;64357;51.344;6.550;2022-11-27T13:27:48;101489.13;;;8.66;69.71
75740;BME280;64357;51.344;6.550;2022-11-27T13:30:24;101493.31;;;8.66;69.04
75740;BME280;64357;51.344;6.550;2022-11-27T13:32:56;101486.03;;;8.62;69.75
75740;BME280;64357;51.344;6.550;2022-11-27T13:38:07;101479.16;;;8.53;69.70
75740;BME280;64357;51.344;6.550;2022-11-27T13:40:41;101491.72;;;8.52;70.75
75740;BME280;64357;51.344;6.550;2022-11-27T13:43:30;101482.97;;;8.57;69.91
75740;BME280;64357;51.344;6.550;2022-11-27T13:46:11;101481.88;;;8.55;70.33
75740;BME280;64357;51.344;6.550;2022-11-27T13:48:41;101480.06;;;8.54;70.74
75740;BME280;64357;51.344;6.550;2022-11-27T13:51:22;101463.88;;;8.53;70.82
75740;BME280;64357;51.344;6.550;2022-11-27T13:54:14;101452.41;;;8.57;70.95
75740;BME280;64357;51.344;6.550;2022-11-27T13:56:42;101463.34;;;8.56;70.32
75740;BME280;64357;51.344;6.550;2022-11-27T13:59:16;101457.84;;;8.60;70.37
75740;BME280;64357;51.344;6.550;2022-11-27T14:04:19;101475.84;;;8.62;69.73
75740;BME280;64357;51.344;6.550;2022-11-27T14:06:51;101480.78;;;8.60;68.99
75740;BME280;64357;51.344;6.550;2022-11-27T14:09:18;101483.31;;;8.67;69.53
75740;BME280;64357;51.344;6.550;2022-11-27T14:11:45;101479.88;;;8.60;69.58
75740;BME280;64357;51.344;6.550;2022-11-27T14:14:21;101468.59;;;8.58;70.37
75740;BME280;64357;51.344;6.550;2022-11-27T14:16:59;101435.53;;;8.50;70.63
75740;BME280;64357;51.344;6.550;2022-11-27T14:19:58;101427.16;;;8.51;71.26
75740;BME280;64357;51.344;6.550;2022-11-27T14:22:40;101438.41;;;8.53;71.36
75740;BME280;64357;51.344;6.550;2022-11-27T14:27:42;101459.50;;;8.52;69.55
75740;BME280;64357;51.344;6.550;2022-11-27T14:32:59;101436.78;;;8.47;70.52
75740;BME280;64357;51.344;6.550;2022-11-27T14:35:26;101431.16;;;8.42;70.73
75740;BME280;64357;51.344;6.550;2022-11-27T14:37:52;101436.25;;;8.42;70.67
75740;BME280;64357;51.344;6.550;2022-11-27T14:40:26;101420.06;;;8.42;70.98
75740;BME280;64357;51.344;6.550;2022-11-27T14:42:51;101402.06;;;8.40;71.05
75740;BME280;64357;51.344;6.550;2022-11-27T14:45:20;101379.91;;;8.39;71.90
75740;BME280;64357;51.344;6.550;2022-11-27T14:47:48;101369.72;;;8.39;72.86
75740;BME280;64357;51.344;6.550;2022-11-27T14:50:15;101365.53;;;8.33;72.52